createdAt,value
2022-10-19T00:01:15.532Z,101932.03
2022-10-19T00:03:43.463Z,101934.56
2022-10-19T00:06:13.008Z,101902.59
2022-10-19T00:08:40.495Z,101937.69
2022-10-19T00:11:08.718Z,101847.25
2022-10-19T00:13:36.547Z,101920.53
2022-10-19T00:16:11.347Z,101892.53
2022-10-19T00:18:39.535Z,101919.91
2022-10-19T00:21:08.959Z,101920.91
2022-10-19T00:23:37.109Z,101882.75
2022-10-19T00:26:05.130Z,101909.88
2022-10-19T00:28:35.601Z,101859.84
2022-10-19T00:31:05.537Z,101867.81
2022-10-19T00:33:33.536Z,101906.78
2022-10-19T00:36:01.127Z,101895.44
2022-10-19T00:38:28.561Z,101878.06
2022-10-19T00:40:55.989Z,101896.03
2022-10-19T00:43:29.189Z,101890.66
2022-10-19T00:45:56.590Z,101862.06
2022-10-19T00:48:28.294Z,101841.66
2022-10-19T00:50:58.540Z,101830.94
2022-10-19T00:53:28.954Z,101824.03
2022-10-19T00:55:58.753Z,101836.97
2022-10-19T00:58:26.170Z,101875.47
2022-10-19T01:00:54.032Z,101826.53
2022-10-19T01:03:21.888Z,101868.06
2022-10-19T01:05:49.997Z,101791.31
2022-10-19T01:08:18.021Z,101820.88
2022-10-19T01:10:55.690Z,101830.41
2022-10-19T01:14:05.986Z,101861.84
2022-10-19T01:16:57.808Z,101851.34
2022-10-19T01:19:50.349Z,101852.53
2022-10-19T01:22:51.289Z,101848.59
2022-10-19T01:25:21.842Z,101846.19
2022-10-19T01:28:03.034Z,101803.13
2022-10-19T01:30:30.617Z,101828.91
2022-10-19T01:33:19.922Z,101819.25
2022-10-19T01:35:51.648Z,101821.53
2022-10-19T01:38:46.806Z,101823.19
2022-10-19T01:41:17.302Z,101820.03
2022-10-19T01:44:03.859Z,101827.72
2022-10-19T01:46:44.206Z,101812.56
2022-10-19T01:49:18.374Z,101822.50
2022-10-19T01:54:27.009Z,101770.66
2022-10-19T01:56:57.089Z,101771.41
2022-10-19T01:59:26.676Z,101817.50
2022-10-19T02:01:56.138Z,101793.16
2022-10-19T02:04:25.201Z,101831.63
2022-10-19T02:06:54.631Z,101823.47
2022-10-19T02:09:22.258Z,101782.66
2022-10-19T02:11:57.275Z,101829.22
2022-10-19T02:14:30.827Z,101835.50
2022-10-19T02:17:28.338Z,101782.66
2022-10-19T02:19:55.884Z,101810.13
2022-10-19T02:22:23.296Z,101818.91
2022-10-19T02:24:51.095Z,101799.56
2022-10-19T02:27:19.355Z,101817.19
2022-10-19T02:29:47.118Z,101761.06
2022-10-19T02:32:15.329Z,101767.16
2022-10-19T02:34:44.112Z,101769.31
2022-10-19T02:37:12.123Z,101798.81
2022-10-19T02:39:41.594Z,101731.88
2022-10-19T02:42:20.690Z,101814.94
2022-10-19T02:44:53.523Z,101795.53
2022-10-19T02:47:28.148Z,101801.19
2022-10-19T02:49:55.995Z,101712.25
2022-10-19T02:52:23.519Z,101768.53
2022-10-19T02:54:51.080Z,101772.16
2022-10-19T02:57:22.054Z,101790.13
2022-10-19T02:59:49.940Z,101758.63
2022-10-19T03:02:18.944Z,101764.34
2022-10-19T03:07:17.539Z,101772.09
2022-10-19T03:09:45.268Z,101732.34
2022-10-19T03:12:14.127Z,101779.38
2022-10-19T03:14:42.662Z,101810.09
2022-10-19T03:17:10.203Z,101739.72
2022-10-19T03:19:38.305Z,101765.63
2022-10-19T03:22:06.410Z,101776.25
2022-10-19T03:24:34.253Z,101741.13
2022-10-19T03:27:02.562Z,101752.41
2022-10-19T03:29:30.256Z,101724.97
2022-10-19T03:31:58.046Z,101771.47
2022-10-19T03:34:25.530Z,101769.91
2022-10-19T03:36:52.897Z,101776.25
2022-10-19T03:39:22.486Z,101737.16
2022-10-19T03:41:50.031Z,101768.88
2022-10-19T03:44:18.069Z,101754.13
2022-10-19T03:46:45.824Z,101741.50
2022-10-19T03:49:13.619Z,101719.41
2022-10-19T03:51:41.132Z,101752.44
2022-10-19T03:54:17.003Z,101674.75
2022-10-19T03:56:44.496Z,101761.88
2022-10-19T03:59:14.758Z,101711.63
2022-10-19T04:01:46.020Z,101709.19
2022-10-19T04:04:19.357Z,101708.44
2022-10-19T04:06:48.041Z,101755.78
2022-10-19T04:09:18.340Z,101741.72
2022-10-19T04:11:46.542Z,101700.41
2022-10-19T04:14:22.926Z,101761.22
2022-10-19T04:17:01.653Z,101678.81
2022-10-19T04:19:29.214Z,101718.72
2022-10-19T04:21:57.771Z,101675.38
2022-10-19T04:24:26.269Z,101684.91
2022-10-19T04:26:58.252Z,101682.69
2022-10-19T04:29:29.810Z,101665.91
2022-10-19T04:31:59.306Z,101705.19
2022-10-19T04:34:26.921Z,101711.94
2022-10-19T04:36:54.737Z,101653.56
2022-10-19T04:39:22.256Z,101711.88
2022-10-19T04:41:49.704Z,101639.06
2022-10-19T04:44:17.427Z,101656.19
2022-10-19T04:46:45.414Z,101629.34
2022-10-19T04:49:18.013Z,101621.09
2022-10-19T04:51:48.225Z,101652.00
2022-10-19T04:54:15.556Z,101694.03
2022-10-19T04:56:42.988Z,101697.31
2022-10-19T04:59:12.056Z,101685.91
2022-10-19T05:01:46.559Z,101677.28
2022-10-19T05:04:15.003Z,101689.94
2022-10-19T05:06:42.567Z,101701.16
2022-10-19T05:09:12.177Z,101633.88
2022-10-19T05:11:39.830Z,101642.03
2022-10-19T05:14:07.406Z,101704.38
2022-10-19T05:16:35.080Z,101648.53
2022-10-19T05:19:02.992Z,101668.72
2022-10-19T05:21:39.004Z,101657.44
2022-10-19T05:24:11.942Z,101656.78
2022-10-19T05:26:39.627Z,101676.25
2022-10-19T05:29:07.139Z,101653.72
2022-10-19T05:31:35.137Z,101625.31
2022-10-19T05:34:04.335Z,101665.53
2022-10-19T05:36:37.783Z,101678.97
2022-10-19T05:39:10.085Z,101690.38
2022-10-19T05:41:38.504Z,101579.63
2022-10-19T05:44:06.512Z,101672.94
2022-10-19T05:46:34.915Z,101678.19
2022-10-19T05:49:02.619Z,101673.84
2022-10-19T05:51:30.083Z,101591.53
2022-10-19T05:53:57.815Z,101676.50
2022-10-19T05:56:28.291Z,101668.41
2022-10-19T05:58:56.952Z,101680.38
2022-10-19T06:01:24.637Z,101686.50
2022-10-19T06:03:54.507Z,101684.06
2022-10-19T06:06:22.698Z,101681.19
2022-10-19T06:08:53.617Z,101681.91
2022-10-19T06:11:30.174Z,101673.50
2022-10-19T06:13:59.693Z,101642.59
2022-10-19T06:16:27.595Z,101679.84
2022-10-19T06:18:55.714Z,101661.13
2022-10-19T06:21:26.588Z,101671.97
2022-10-19T06:23:56.383Z,101676.69
2022-10-19T06:26:24.748Z,101663.72
2022-10-19T06:28:54.566Z,101677.75
2022-10-19T06:31:21.784Z,101680.31
2022-10-19T06:33:49.651Z,101665.94
2022-10-19T06:36:20.785Z,101677.28
2022-10-19T06:38:54.064Z,101684.25
2022-10-19T06:41:21.426Z,101669.88
2022-10-19T06:43:53.701Z,101673.38
2022-10-19T06:46:23.601Z,101633.66
2022-10-19T06:48:58.630Z,101674.91
2022-10-19T06:51:28.140Z,101661.25
2022-10-19T06:53:57.157Z,101667.91
2022-10-19T06:56:25.900Z,101672.56
2022-10-19T06:58:53.831Z,101653.88
2022-10-19T07:01:21.763Z,101667.00
2022-10-19T07:03:51.310Z,101655.06
2022-10-19T07:06:19.368Z,101651.78
2022-10-19T07:08:47.069Z,101662.59
2022-10-19T07:11:19.628Z,101657.94
2022-10-19T07:13:47.147Z,101661.28
2022-10-19T07:16:20.624Z,101659.09
2022-10-19T07:18:50.750Z,101658.78
2022-10-19T07:21:18.962Z,101617.47
2022-10-19T07:23:50.633Z,101655.09
2022-10-19T07:26:27.602Z,101653.22
2022-10-19T07:28:58.229Z,101653.72
2022-10-19T07:31:26.996Z,101644.19
2022-10-19T07:34:00.145Z,101644.50
2022-10-19T07:36:28.948Z,101642.63
2022-10-19T07:38:56.378Z,101634.16
2022-10-19T07:41:25.662Z,101636.31
2022-10-19T07:43:53.578Z,101582.13
2022-10-19T07:46:23.262Z,101593.06
2022-10-19T07:48:50.499Z,101613.16
2022-10-19T07:51:19.418Z,101616.72
2022-10-19T07:53:47.166Z,101589.13
2022-10-19T07:56:17.937Z,101615.41
2022-10-19T07:59:52.261Z,101602.00
2022-10-19T08:02:20.362Z,101577.88
2022-10-19T08:05:06.390Z,101599.66
2022-10-19T08:07:34.904Z,101606.84
2022-10-19T08:10:02.073Z,101557.97
2022-10-19T08:12:29.197Z,101583.81
2022-10-19T08:14:57.037Z,101589.78
2022-10-19T08:17:24.336Z,101538.81
2022-10-19T08:19:51.659Z,101580.81
2022-10-19T08:22:19.090Z,101579.34
2022-10-19T08:24:46.428Z,101573.28
2022-10-19T08:27:15.151Z,101577.69
2022-10-19T08:29:42.403Z,101571.38
2022-10-19T08:32:09.762Z,101553.59
2022-10-19T08:34:37.272Z,101566.72
2022-10-19T08:37:10.463Z,101554.50
2022-10-19T08:39:47.297Z,101559.34
2022-10-19T08:43:03.264Z,101559.72
2022-10-19T08:45:38.605Z,101555.97
2022-10-19T08:48:27.549Z,101534.50
2022-10-19T08:50:57.356Z,101550.38
2022-10-19T08:53:38.445Z,101554.75
2022-10-19T08:56:49.208Z,101541.91
2022-10-19T08:59:53.630Z,101526.25
2022-10-19T09:02:31.486Z,101537.53
2022-10-19T09:05:05.904Z,101532.19
2022-10-19T09:07:45.779Z,101533.59
2022-10-19T09:10:17.105Z,101527.97
2022-10-19T09:12:59.570Z,101532.06
2022-10-19T09:15:42.037Z,101531.13
2022-10-19T09:18:25.097Z,101505.94
2022-10-19T09:21:08.055Z,101521.56
2022-10-19T09:23:55.376Z,101521.41
2022-10-19T09:26:28.306Z,101526.72
2022-10-19T09:29:21.344Z,101527.09
2022-10-19T09:31:54.680Z,101489.81
2022-10-19T09:34:36.641Z,101510.38
2022-10-19T09:37:04.503Z,101506.44
2022-10-19T09:39:32.011Z,101507.25
2022-10-19T09:42:17.473Z,101510.16
2022-10-19T09:44:44.990Z,101462.13
2022-10-19T09:47:20.305Z,101497.88
2022-10-19T09:49:50.794Z,101495.00
2022-10-19T09:52:34.093Z,101480.78
2022-10-19T09:55:34.080Z,101467.41
2022-10-19T09:58:13.905Z,101483.13
2022-10-19T10:00:46.945Z,101472.91
2022-10-19T10:03:26.796Z,101466.56
2022-10-19T10:05:55.989Z,101462.06
2022-10-19T10:08:25.954Z,101453.09
2022-10-19T10:11:11.496Z,101443.59
2022-10-19T10:13:48.837Z,101461.72
2022-10-19T10:16:18.362Z,101455.91
2022-10-19T10:18:55.070Z,101449.84
2022-10-19T10:21:26.252Z,101398.66
2022-10-19T10:24:11.852Z,101447.44
2022-10-19T10:26:44.451Z,101430.00
2022-10-19T10:29:27.904Z,101433.31
2022-10-19T10:32:13.581Z,101433.53
2022-10-19T10:34:51.980Z,101423.84
2022-10-19T10:37:38.053Z,101430.84
2022-10-19T10:40:08.126Z,101417.91
2022-10-19T10:42:42.500Z,101415.69
2022-10-19T10:45:39.897Z,101410.47
2022-10-19T10:48:19.317Z,101416.97
2022-10-19T10:50:46.711Z,101406.38
2022-10-19T10:53:32.974Z,101407.28
2022-10-19T10:56:00.529Z,101393.13
2022-10-19T10:58:36.152Z,101392.75
2022-10-19T11:01:08.057Z,101388.03
2022-10-19T11:03:39.822Z,101393.91
2022-10-19T11:06:11.600Z,101387.91
2022-10-19T11:09:11.861Z,101383.72
2022-10-19T11:11:46.928Z,101390.78
2022-10-19T11:14:49.966Z,101383.72
2022-10-19T11:17:30.534Z,101363.03
2022-10-19T11:19:57.729Z,101373.25
2022-10-19T11:22:35.775Z,101366.97
2022-10-19T11:25:21.800Z,101365.09
2022-10-19T11:28:11.245Z,101370.59
2022-10-19T11:31:10.031Z,101362.91
2022-10-19T11:34:03.549Z,101358.53
2022-10-19T11:36:48.764Z,101366.69
2022-10-19T11:39:34.863Z,101354.94
2022-10-19T11:45:31.251Z,101345.06
2022-10-19T11:48:10.840Z,101335.81
2022-10-19T11:51:04.128Z,101342.06
2022-10-19T11:54:23.037Z,101326.53
2022-10-19T11:57:03.496Z,101315.25
2022-10-19T12:00:39.794Z,101320.50
2022-10-19T12:03:10.277Z,101316.91
2022-10-19T12:05:43.476Z,101323.56
2022-10-19T12:08:37.760Z,101334.78
2022-10-19T12:11:39.219Z,101316.59
2022-10-19T12:14:13.621Z,101323.09
2022-10-19T12:16:45.444Z,101314.16
2022-10-19T12:19:27.228Z,101311.88
2022-10-19T12:22:00.484Z,101304.63
2022-10-19T12:24:30.969Z,101302.06
2022-10-19T12:26:59.794Z,101301.19
2022-10-19T12:29:39.936Z,101286.03
2022-10-19T12:32:08.824Z,101267.59
2022-10-19T12:34:47.041Z,101275.63
2022-10-19T12:37:29.668Z,101277.97
2022-10-19T12:40:00.907Z,101280.19
2022-10-19T12:42:51.764Z,101279.22
2022-10-19T12:45:31.562Z,101277.06
2022-10-19T12:48:19.140Z,101273.63
2022-10-19T12:50:49.471Z,101279.69
2022-10-19T12:53:40.745Z,101265.25
2022-10-19T12:56:11.454Z,101278.84
2022-10-19T12:58:47.435Z,101274.13
2022-10-19T13:01:18.903Z,101272.22
2022-10-19T13:03:48.140Z,101263.13
2022-10-19T13:06:26.506Z,101277.00
2022-10-19T13:08:54.208Z,101274.97
2022-10-19T13:11:23.558Z,101250.28
2022-10-19T13:13:58.954Z,101274.22
2022-10-19T13:16:29.495Z,101271.44
2022-10-19T13:19:06.312Z,101277.47
2022-10-19T13:21:55.045Z,101265.28
2022-10-19T13:24:25.495Z,101277.34
2022-10-19T13:27:04.949Z,101259.25
2022-10-19T13:29:41.530Z,101272.72
2022-10-19T13:32:45.497Z,101277.13
2022-10-19T13:35:33.873Z,101280.75
2022-10-19T13:38:13.075Z,101282.84
2022-10-19T13:40:49.192Z,101273.84
2022-10-19T13:43:27.281Z,101274.56
2022-10-19T13:46:16.309Z,101275.50
2022-10-19T13:49:02.959Z,101265.56
2022-10-19T13:52:07.917Z,101270.63
2022-10-19T13:54:50.404Z,101268.16
2022-10-19T13:57:56.156Z,101267.75
2022-10-19T14:00:37.198Z,101260.84
2022-10-19T14:03:23.965Z,101277.63
2022-10-19T14:06:15.441Z,101279.72
2022-10-19T14:08:58.033Z,101199.22
2022-10-19T14:11:39.961Z,101274.03
2022-10-19T14:14:14.543Z,101261.47
2022-10-19T14:16:56.090Z,101286.88
2022-10-19T14:19:33.265Z,101292.47
2022-10-19T14:22:18.435Z,101284.47
2022-10-19T14:24:45.956Z,101281.31
2022-10-19T14:27:19.674Z,101282.19
2022-10-19T14:29:50.493Z,101254.81
2022-10-19T14:32:21.479Z,101271.25
2022-10-19T14:34:49.686Z,101277.38
2022-10-19T14:37:21.450Z,101276.41
2022-10-19T14:40:26.463Z,101269.41
2022-10-19T14:42:57.344Z,101254.25
2022-10-19T14:45:30.686Z,101277.47
2022-10-19T14:48:02.288Z,101275.69
2022-10-19T14:50:35.732Z,101286.38
2022-10-19T14:53:18.299Z,101283.06
2022-10-19T14:55:46.574Z,101272.84
2022-10-19T14:58:20.767Z,101240.13
2022-10-19T15:00:50.714Z,101284.66
2022-10-19T15:03:24.920Z,101268.50
2022-10-19T15:05:56.652Z,101281.88
2022-10-19T15:08:42.821Z,101279.63
2022-10-19T15:11:22.342Z,101277.59
2022-10-19T15:14:03.997Z,101295.63
2022-10-19T15:16:54.333Z,101293.00
2022-10-19T15:19:32.599Z,101291.69
2022-10-19T15:22:39.263Z,101293.59
2022-10-19T15:25:06.591Z,101289.09
2022-10-19T15:27:47.589Z,101295.97
2022-10-19T15:30:17.844Z,101293.09
2022-10-19T15:32:48.615Z,101298.56
2022-10-19T15:35:25.487Z,101275.53
2022-10-19T15:38:00.899Z,101289.19
2022-10-19T15:40:40.143Z,101246.47
2022-10-19T15:43:35.623Z,101300.50
2022-10-19T15:46:20.545Z,101304.44
2022-10-19T15:48:55.949Z,101305.25
2022-10-19T15:51:26.377Z,101316.53
2022-10-19T15:54:02.984Z,101316.00
2022-10-19T15:56:32.556Z,101315.75
2022-10-19T15:59:01.910Z,101315.94
2022-10-19T16:01:32.441Z,101296.53
2022-10-19T16:04:00.402Z,101310.72
2022-10-19T16:06:30.724Z,101320.66
2022-10-19T16:09:00.078Z,101323.75
2022-10-19T16:11:29.229Z,101317.13
2022-10-19T16:13:56.552Z,101291.41
2022-10-19T16:16:26.722Z,101274.00
2022-10-19T16:18:55.012Z,101343.25
2022-10-19T16:21:32.468Z,101313.66
2022-10-19T16:23:59.705Z,101357.06
2022-10-19T16:26:28.033Z,101356.28
2022-10-19T16:28:55.683Z,101313.91
2022-10-19T16:31:23.762Z,101366.97
2022-10-19T16:33:52.022Z,101366.69
2022-10-19T16:36:20.483Z,101366.66
2022-10-19T16:38:48.156Z,101380.03
2022-10-19T16:41:16.491Z,101340.16
2022-10-19T16:43:43.993Z,101380.13
2022-10-19T16:46:11.574Z,101348.06
2022-10-19T16:48:38.907Z,101349.13
2022-10-19T16:51:05.997Z,101395.66
2022-10-19T16:53:34.431Z,101397.41
2022-10-19T16:56:10.701Z,101407.31
2022-10-19T16:58:38.597Z,101403.59
2022-10-19T17:01:10.764Z,101393.31
2022-10-19T17:03:38.278Z,101402.53
2022-10-19T17:06:07.766Z,101377.00
2022-10-19T17:08:36.968Z,101410.53
2022-10-19T17:11:34.823Z,101411.47
2022-10-19T17:14:05.931Z,101413.16
2022-10-19T17:16:35.392Z,101412.94
2022-10-19T17:19:05.136Z,101417.78
2022-10-19T17:21:38.065Z,101423.38
2022-10-19T17:24:07.876Z,101383.06
2022-10-19T17:26:41.986Z,101433.16
2022-10-19T17:29:10.036Z,101434.41
2022-10-19T17:31:39.955Z,101437.31
2022-10-19T17:34:08.743Z,101438.09
2022-10-19T17:39:17.749Z,101424.00
2022-10-19T17:41:47.786Z,101432.06
2022-10-19T17:44:18.826Z,101429.06
2022-10-19T17:46:46.559Z,101399.16
2022-10-19T17:49:14.242Z,101442.94
2022-10-19T17:51:42.199Z,101431.34
2022-10-19T17:54:13.274Z,101438.53
2022-10-19T17:56:41.468Z,101451.22
2022-10-19T17:59:09.239Z,101439.97
2022-10-19T18:01:37.709Z,101449.84
2022-10-19T18:04:06.008Z,101406.19
2022-10-19T18:06:35.512Z,101392.63
2022-10-19T18:09:05.916Z,101445.25
2022-10-19T18:11:37.489Z,101447.91
2022-10-19T18:14:06.119Z,101431.91
2022-10-19T18:16:37.139Z,101459.22
2022-10-19T18:19:05.824Z,101465.25
2022-10-19T18:21:36.536Z,101459.97
2022-10-19T18:24:03.867Z,101465.94
2022-10-19T18:26:33.198Z,101428.03
2022-10-19T18:29:02.684Z,101470.84
2022-10-19T18:31:31.778Z,101472.34
2022-10-19T18:34:00.264Z,101476.56
2022-10-19T18:36:27.959Z,101479.38
2022-10-19T18:38:57.737Z,101484.03
2022-10-19T18:41:25.627Z,101477.94
2022-10-19T18:43:55.849Z,101492.31
2022-10-19T18:46:24.685Z,101444.19
2022-10-19T18:48:53.772Z,101492.38
2022-10-19T18:51:22.778Z,101476.28
2022-10-19T18:53:50.619Z,101444.56
2022-10-19T18:56:20.475Z,101501.22
2022-10-19T18:58:48.236Z,101460.97
2022-10-19T19:01:23.078Z,101507.81
2022-10-19T19:03:52.663Z,101509.53
2022-10-19T19:06:26.275Z,101511.19
2022-10-19T19:08:58.130Z,101502.09
2022-10-19T19:11:29.604Z,101502.59
2022-10-19T19:14:03.957Z,101530.41
2022-10-19T19:16:35.727Z,101528.66
2022-10-19T19:19:03.668Z,101506.81
2022-10-19T19:21:32.338Z,101527.34
2022-10-19T19:24:02.495Z,101523.44
2022-10-19T19:26:32.915Z,101529.03
2022-10-19T19:29:00.119Z,101537.34
2022-10-19T19:31:27.550Z,101519.91
2022-10-19T19:33:55.192Z,101531.41
2022-10-19T19:36:22.553Z,101539.53
2022-10-19T19:38:51.919Z,101540.06
2022-10-19T19:41:19.210Z,101538.59
2022-10-19T19:43:47.033Z,101492.88
2022-10-19T19:46:19.063Z,101544.47
2022-10-19T19:48:48.143Z,101554.50
2022-10-19T19:51:21.282Z,101490.00
2022-10-19T19:53:48.530Z,101570.91
2022-10-19T19:56:16.750Z,101569.34
2022-10-19T19:58:45.655Z,101571.28
2022-10-19T20:01:19.142Z,101551.84
2022-10-19T20:03:47.096Z,101572.69
2022-10-19T20:06:18.682Z,101563.31
2022-10-19T20:08:49.458Z,101571.28
2022-10-19T20:11:17.849Z,101571.81
2022-10-19T20:13:46.141Z,101580.41
2022-10-19T20:16:17.176Z,101581.31
2022-10-19T20:18:47.093Z,101583.66
2022-10-19T20:21:15.798Z,101572.97
2022-10-19T20:23:49.798Z,101562.59
2022-10-19T20:26:25.038Z,101554.63
2022-10-19T20:28:52.999Z,101554.41
2022-10-19T20:31:21.195Z,101564.88
2022-10-19T20:33:48.858Z,101525.34
2022-10-19T20:36:23.275Z,101495.53
2022-10-19T20:38:59.527Z,101585.69
2022-10-19T20:41:28.579Z,101559.94
2022-10-19T20:44:00.116Z,101584.50
2022-10-19T20:46:30.400Z,101572.31
2022-10-19T20:49:01.316Z,101590.31
2022-10-19T20:51:34.533Z,101506.34
2022-10-19T20:54:05.411Z,101575.91
2022-10-19T20:56:36.494Z,101601.72
2022-10-19T20:59:08.295Z,101606.66
2022-10-19T21:01:38.119Z,101585.38
2022-10-19T21:04:08.249Z,101602.09
2022-10-19T21:06:39.496Z,101607.06
2022-10-19T21:09:08.499Z,101609.03
2022-10-19T21:11:38.634Z,101564.13
2022-10-19T21:14:13.541Z,101593.78
2022-10-19T21:16:41.332Z,101605.06
2022-10-19T21:19:13.325Z,101614.19
2022-10-19T21:21:44.611Z,101606.06
2022-10-19T21:24:20.468Z,101607.63
2022-10-19T21:26:49.352Z,101609.63
2022-10-19T21:29:17.285Z,101575.94
2022-10-19T21:31:49.119Z,101573.41
2022-10-19T21:34:19.628Z,101616.06
2022-10-19T21:36:47.325Z,101614.66
2022-10-19T21:39:15.372Z,101597.31
2022-10-19T21:41:42.577Z,101564.22
2022-10-19T21:44:10.020Z,101613.94
2022-10-19T21:46:37.537Z,101612.53
2022-10-19T21:49:05.828Z,101613.31
2022-10-19T21:51:39.794Z,101576.94
2022-10-19T21:56:43.393Z,101538.41
2022-10-19T21:59:12.384Z,101593.63
2022-10-19T22:01:41.581Z,101612.16
2022-10-19T22:04:14.962Z,101599.66
2022-10-19T22:06:43.520Z,101623.81
2022-10-19T22:09:41.026Z,101588.13
2022-10-19T22:12:18.643Z,101568.22
2022-10-19T22:14:45.853Z,101583.09
2022-10-19T22:17:13.648Z,101622.34
2022-10-19T22:19:41.148Z,101601.84
2022-10-19T22:22:08.342Z,101612.97
2022-10-19T22:24:39.151Z,101626.25
2022-10-19T22:27:06.518Z,101616.75
2022-10-19T22:29:33.750Z,101623.91
2022-10-19T22:32:01.220Z,101628.22
2022-10-19T22:34:56.129Z,101586.25
2022-10-19T22:37:23.778Z,101613.56
2022-10-19T22:39:51.411Z,101622.59
2022-10-19T22:42:30.981Z,101667.16
2022-10-19T22:45:00.121Z,101619.16
2022-10-19T22:47:30.377Z,101562.47
2022-10-19T22:50:01.073Z,101568.81
2022-10-19T22:52:29.374Z,101646.28
2022-10-19T22:54:57.810Z,101624.03
2022-10-19T22:57:25.512Z,101633.28
2022-10-19T22:59:53.026Z,101687.56
2022-10-19T23:02:22.936Z,101672.22
2022-10-19T23:04:58.534Z,101585.72
2022-10-19T23:07:32.165Z,101635.56
2022-10-19T23:10:00.639Z,101662.59
2022-10-19T23:12:32.959Z,101589.56
2022-10-19T23:15:00.821Z,101661.97
2022-10-19T23:17:30.654Z,101656.72
2022-10-19T23:19:58.193Z,101682.19
2022-10-19T23:22:25.382Z,101665.50
2022-10-19T23:24:52.616Z,101640.25
2022-10-19T23:27:21.417Z,101667.09
2022-10-19T23:29:48.739Z,101693.16
2022-10-19T23:32:16.016Z,101664.72
2022-10-19T23:34:46.005Z,101682.81
2022-10-19T23:37:16.508Z,101689.00
2022-10-19T23:39:44.024Z,101679.00
2022-10-19T23:42:11.212Z,101688.22
2022-10-19T23:44:38.996Z,101663.31
2022-10-19T23:47:06.296Z,101692.53
2022-10-19T23:49:33.883Z,101678.84
2022-10-19T23:52:01.497Z,101671.25
2022-10-19T23:54:28.703Z,101687.00
2022-10-19T23:56:56.404Z,101680.97
2022-10-19T23:59:23.887Z,101670.03
